YPPH/PER METAR and TAF weather

Enter ICAO airport designator
Station Type Date Time Source
YPPH METAR 2020/01/28 21:00 UTC NOAA

YPPH 282100Z 21007KT 9999 FEW017 19/16 Q1009 NOSIG


Station Type Date Time Source
YPPH Decoded METAR 2020/01/28 21:00 UTC NOAA

Belmont Perth Airport , Australia (YPPH) 31-56S 115-57E 29M
Jan 28, 2020 - 04:00 PM EST / 2020.01.28 2100 UTC
Wind: from the SSW (210 degrees) at 8 MPH (7 KT):0
Visibility: greater than 7 mile(s):0
Sky conditions: mostly clear
Temperature: 66 F (19 C)
Dew Point: 60 F (16 C)
Relative Humidity: 82%
Pressure (altimeter): 29.80 in. Hg (1009 hPa)
ob: YPPH 282100Z 21007KT 9999 FEW017 19/16 Q1009 NOSIG
cycle: 21

Station Type Date Time Source
YPPH TAF 2020/01/28 20:21 UTC NOAA

TAF
AMD YPPH 281920Z 2820/3000 20010KT 9999 SCT017
FM290000 21010KT 9999 SCT025
FM290200 24012KT CAVOK
FM291200 23008KT 9999 SCT025
FM291500 23008KT 9999 -SHRA SCT020 BKN030 INTER 2918/3000 4000 SHRA BKN012

Example: see airport list